createdAt,value
2017-08-07T00:00:28.720Z,0
2017-08-07T00:01:28.477Z,0
2017-08-07T00:02:28.816Z,0
2017-08-07T00:03:28.507Z,0
2017-08-07T00:04:28.250Z,0
2017-08-07T00:05:28.616Z,0
2017-08-07T00:06:28.624Z,0
2017-08-07T00:07:28.946Z,0
2017-08-07T00:08:29.007Z,0
2017-08-07T00:09:28.712Z,0
2017-08-07T00:10:29.409Z,0
2017-08-07T00:11:29.417Z,0
2017-08-07T00:12:29.471Z,0
2017-08-07T00:13:29.219Z,0
2017-08-07T00:14:29.843Z,0
2017-08-07T00:15:29.241Z,0
2017-08-07T00:16:29.876Z,0
2017-08-07T00:17:30.253Z,0
2017-08-07T00:18:30.242Z,0
2017-08-07T00:19:29.967Z,0
2017-08-07T00:20:29.854Z,0
2017-08-07T00:21:30.247Z,0
2017-08-07T00:22:30.918Z,0
2017-08-07T00:23:30.908Z,0
2017-08-07T00:24:30.978Z,0
2017-08-07T00:25:31.447Z,0
2017-08-07T00:26:31.517Z,0
2017-08-07T00:27:31.527Z,0
2017-08-07T00:28:30.948Z,0
2017-08-07T00:29:31.641Z,0
2017-08-07T00:30:31.709Z,0
2017-08-07T00:31:31.712Z,0
2017-08-07T00:32:32.080Z,0
2017-08-07T00:33:31.786Z,0
2017-08-07T00:34:31.566Z,0
2017-08-07T00:35:32.554Z,0
2017-08-07T00:36:32.580Z,0
2017-08-07T00:37:32.612Z,0
2017-08-07T00:38:32.685Z,0
2017-08-07T00:39:32.369Z,0
2017-08-07T00:40:32.815Z,0
2017-08-07T00:41:31.885Z,0
2017-08-07T00:42:32.873Z,0
2017-08-07T00:43:32.609Z,0
2017-08-07T00:44:32.318Z,0
2017-08-07T00:45:33.348Z,0
2017-08-07T00:46:33.316Z,0
2017-08-07T00:47:33.058Z,0
2017-08-07T00:48:32.793Z,0
2017-08-07T00:49:33.472Z,0
2017-08-07T00:50:33.514Z,0
2017-08-07T00:51:33.549Z,0
2017-08-07T00:52:33.550Z,0
2017-08-07T00:53:33.587Z,0
2017-08-07T00:54:33.648Z,0
2017-08-07T00:55:33.414Z,0
2017-08-07T00:56:33.701Z,0
2017-08-07T00:57:33.162Z,0
2017-08-07T00:58:33.876Z,0
2017-08-07T00:59:34.177Z,0
2017-08-07T01:00:35.151Z,0
2017-08-07T01:01:33.920Z,0
2017-08-07T01:02:34.608Z,0
2017-08-07T01:03:34.311Z,0
2017-08-07T01:04:34.370Z,0
2017-08-07T01:05:34.378Z,0
2017-08-07T01:06:34.405Z,0
2017-08-07T01:07:34.755Z,0
2017-08-07T01:08:34.762Z,0
2017-08-07T01:09:34.785Z,0
2017-08-07T01:10:34.875Z,0
2017-08-07T01:11:34.850Z,0
2017-08-07T01:12:34.554Z,0
2017-08-07T01:13:34.921Z,0
2017-08-07T01:14:35.250Z,0
2017-08-07T01:15:34.667Z,0
2017-08-07T01:16:35.667Z,0
2017-08-07T01:17:35.660Z,0
2017-08-07T01:18:35.712Z,0
2017-08-07T01:19:35.722Z,0
2017-08-07T01:20:35.771Z,0
2017-08-07T01:21:35.478Z,0
2017-08-07T01:22:35.836Z,0
2017-08-07T01:23:36.215Z,0
2017-08-07T01:24:36.569Z,0
2017-08-07T01:25:35.969Z,0
2017-08-07T01:26:36.375Z,0
2017-08-07T01:27:36.715Z,0
2017-08-07T01:28:36.759Z,0
2017-08-07T01:29:36.471Z,0
2017-08-07T01:30:36.199Z,0
2017-08-07T01:31:36.881Z,0
2017-08-07T01:32:37.574Z,0
2017-08-07T01:33:37.570Z,0
2017-08-07T01:34:37.282Z,0
2017-08-07T01:35:37.288Z,0
2017-08-07T01:36:37.385Z,0
2017-08-07T01:37:37.684Z,0
2017-08-07T01:38:37.106Z,0
2017-08-07T01:39:38.046Z,0
2017-08-07T01:40:38.114Z,0
2017-08-07T01:41:37.775Z,0
2017-08-07T01:42:37.848Z,0
2017-08-07T01:43:38.180Z,0
2017-08-07T01:44:38.215Z,0
2017-08-07T01:45:38.250Z,0
2017-08-07T01:46:38.276Z,0
2017-08-07T01:47:38.354Z,0
2017-08-07T01:48:38.372Z,0
2017-08-07T01:49:37.743Z,0
2017-08-07T01:50:38.709Z,0
2017-08-07T01:51:38.409Z,0
2017-08-07T01:52:38.416Z,0
2017-08-07T01:53:38.511Z,0
2017-08-07T01:54:38.543Z,0
2017-08-07T01:55:38.312Z,0
2017-08-07T01:56:38.700Z,0
2017-08-07T01:57:38.977Z,0
2017-08-07T01:58:38.741Z,0
2017-08-07T01:59:39.423Z,0
2017-08-07T02:00:40.721Z,0
2017-08-07T02:01:39.208Z,0
2017-08-07T02:02:39.583Z,0
2017-08-07T02:03:39.667Z,0
2017-08-07T02:04:39.943Z,0
2017-08-07T02:05:39.982Z,0
2017-08-07T02:06:39.984Z,0
2017-08-07T02:07:39.760Z,0
2017-08-07T02:08:40.407Z,0
2017-08-07T02:09:40.468Z,0
2017-08-07T02:10:40.487Z,0
2017-08-07T02:11:39.887Z,0
2017-08-07T02:12:40.247Z,0
2017-08-07T02:13:41.203Z,0
2017-08-07T02:14:41.279Z,0
2017-08-07T02:15:40.655Z,0
2017-08-07T02:16:41.283Z,0
2017-08-07T02:17:41.316Z,0
2017-08-07T02:18:41.422Z,0
2017-08-07T02:19:41.679Z,0
2017-08-07T02:20:41.471Z,0
2017-08-07T02:21:41.757Z,0
2017-08-07T02:22:41.785Z,0
2017-08-07T02:23:41.551Z,0
2017-08-07T02:24:41.542Z,0
2017-08-07T02:25:41.910Z,0
2017-08-07T02:26:41.929Z,0
2017-08-07T02:27:41.948Z,0
2017-08-07T02:28:41.994Z,0
2017-08-07T02:29:41.723Z,0
2017-08-07T02:30:42.393Z,0
2017-08-07T02:31:42.431Z,0
2017-08-07T02:32:42.131Z,0
2017-08-07T02:33:42.496Z,0
2017-08-07T02:34:42.220Z,0
2017-08-07T02:35:42.277Z,0
2017-08-07T02:36:41.991Z,0
2017-08-07T02:37:42.624Z,0
2017-08-07T02:38:42.725Z,0
2017-08-07T02:39:42.730Z,0
2017-08-07T02:40:42.773Z,0
2017-08-07T02:41:43.421Z,0
2017-08-07T02:42:43.507Z,0
2017-08-07T02:43:43.178Z,0
2017-08-07T02:44:43.797Z,0
2017-08-07T02:45:43.525Z,0
2017-08-07T02:46:43.575Z,0
2017-08-07T02:47:44.198Z,0
2017-08-07T02:48:43.926Z,0
2017-08-07T02:49:44.329Z,0
2017-08-07T02:50:44.317Z,0
2017-08-07T02:51:44.371Z,0
2017-08-07T02:52:44.362Z,0
2017-08-07T02:53:44.383Z,0
2017-08-07T02:54:44.125Z,0
2017-08-07T02:55:44.482Z,0
2017-08-07T02:56:43.887Z,0
2017-08-07T02:57:44.231Z,0
2017-08-07T02:58:44.590Z,0
2017-08-07T02:59:44.668Z,0
2017-08-07T03:00:44.060Z,4
2017-08-07T03:01:44.452Z,4
2017-08-07T03:02:44.690Z,0
2017-08-07T03:03:44.719Z,0
2017-08-07T03:04:44.759Z,4
2017-08-07T03:05:44.794Z,0
2017-08-07T03:06:45.123Z,4
2017-08-07T03:07:44.862Z,4
2017-08-07T03:08:45.195Z,4
2017-08-07T03:09:44.881Z,8
2017-08-07T03:10:45.284Z,8
2017-08-07T03:11:45.286Z,8
2017-08-07T03:12:45.307Z,8
2017-08-07T03:13:45.388Z,8
2017-08-07T03:14:45.358Z,8
2017-08-07T03:15:45.432Z,12
2017-08-07T03:16:45.151Z,16
2017-08-07T03:17:45.454Z,16
2017-08-07T03:18:45.182Z,20
2017-08-07T03:19:45.522Z,24
2017-08-07T03:20:45.266Z,24
2017-08-07T03:21:45.305Z,28
2017-08-07T03:22:45.623Z,32
2017-08-07T03:23:45.681Z,36
2017-08-07T03:24:44.767Z,40
2017-08-07T03:25:45.740Z,44
2017-08-07T03:26:45.755Z,48
2017-08-07T03:27:45.178Z,56
2017-08-07T03:28:45.860Z,60
2017-08-07T03:29:46.193Z,68
2017-08-07T03:30:46.198Z,76
2017-08-07T03:31:45.951Z,84
2017-08-07T03:32:46.002Z,92
2017-08-07T03:33:46.033Z,104
2017-08-07T03:34:46.021Z,112
2017-08-07T03:35:46.058Z,124
2017-08-07T03:36:46.096Z,132
2017-08-07T03:37:45.867Z,144
2017-08-07T03:38:46.527Z,156
2017-08-07T03:39:46.863Z,172
2017-08-07T03:40:46.581Z,184
2017-08-07T03:41:46.923Z,204
2017-08-07T03:42:46.951Z,216
2017-08-07T03:43:46.990Z,236
2017-08-07T03:44:46.998Z,252
2017-08-07T03:45:47.054Z,268
2017-08-07T03:46:46.753Z,288
2017-08-07T03:47:46.777Z,308
2017-08-07T03:48:47.117Z,324
2017-08-07T03:49:47.160Z,348
2017-08-07T03:50:47.024Z,364
2017-08-07T03:51:47.216Z,388
2017-08-07T03:52:47.298Z,412
2017-08-07T03:53:46.958Z,432
2017-08-07T03:54:46.698Z,456
2017-08-07T03:55:47.497Z,480
2017-08-07T03:56:47.394Z,504
2017-08-07T03:57:47.386Z,524
2017-08-07T03:58:47.730Z,552
2017-08-07T03:59:47.791Z,576
2017-08-07T04:00:47.799Z,604
2017-08-07T04:01:47.570Z,628
2017-08-07T04:02:47.864Z,652
2017-08-07T04:03:47.896Z,680
2017-08-07T04:04:47.592Z,704
2017-08-07T04:05:47.981Z,736
2017-08-07T04:06:47.714Z,760
2017-08-07T04:07:48.022Z,788
2017-08-07T04:08:47.769Z,812
2017-08-07T04:09:48.420Z,840
2017-08-07T04:10:48.459Z,868
2017-08-07T04:11:48.156Z,892
2017-08-07T04:12:47.954Z,920
2017-08-07T04:13:48.593Z,944
2017-08-07T04:14:48.958Z,972
2017-08-07T04:15:48.654Z,1000
2017-08-07T04:16:49.315Z,1028
2017-08-07T04:17:48.696Z,1056
2017-08-07T04:18:49.653Z,1084
2017-08-07T04:19:49.082Z,1112
2017-08-07T04:20:49.435Z,1140
2017-08-07T04:21:49.452Z,1168
2017-08-07T04:22:49.490Z,1200
2017-08-07T04:23:49.854Z,1228
2017-08-07T04:24:48.936Z,1256
2017-08-07T04:25:49.637Z,1288
2017-08-07T04:26:49.662Z,1316
2017-08-07T04:27:50.010Z,1344
2017-08-07T04:28:49.692Z,1372
2017-08-07T04:29:49.739Z,1396
2017-08-07T04:30:49.793Z,1424
2017-08-07T04:31:50.133Z,1452
2017-08-07T04:32:49.854Z,1476
2017-08-07T04:33:50.177Z,1504
2017-08-07T04:34:50.217Z,1528
2017-08-07T04:35:50.265Z,1552
2017-08-07T04:36:50.269Z,1584
2017-08-07T04:37:49.998Z,1608
2017-08-07T04:38:50.330Z,1636
2017-08-07T04:39:49.728Z,1656
2017-08-07T04:40:50.733Z,1684
2017-08-07T04:41:50.718Z,1708
2017-08-07T04:42:50.505Z,1732
2017-08-07T04:43:50.821Z,1760
2017-08-07T04:44:50.520Z,1784
2017-08-07T04:45:50.869Z,1808
2017-08-07T04:46:50.873Z,1832
2017-08-07T04:47:50.928Z,1852
2017-08-07T04:48:50.986Z,1884
2017-08-07T04:49:51.340Z,1920
2017-08-07T04:50:51.037Z,1932
2017-08-07T04:51:51.064Z,1960
2017-08-07T04:52:51.749Z,1980
2017-08-07T04:53:51.770Z,2016
2017-08-07T04:54:51.491Z,2044
2017-08-07T04:55:51.829Z,2040
2017-08-07T04:56:51.886Z,2044
2017-08-07T04:57:51.587Z,2068
2017-08-07T04:58:51.868Z,2088
2017-08-07T04:59:52.523Z,2112
2017-08-07T05:00:52.178Z,2140
2017-08-07T05:01:52.536Z,2164
2017-08-07T05:02:52.895Z,2180
2017-08-07T05:03:52.595Z,2192
2017-08-07T05:04:52.898Z,2208
2017-08-07T05:05:53.265Z,2220
2017-08-07T05:06:53.267Z,2256
2017-08-07T05:07:52.690Z,2284
2017-08-07T05:08:53.355Z,2276
2017-08-07T05:09:53.391Z,2292
2017-08-07T05:10:53.460Z,2312
2017-08-07T05:11:53.499Z,2336
2017-08-07T05:12:53.536Z,2360
2017-08-07T05:13:53.519Z,2392
2017-08-07T05:14:53.259Z,2416
2017-08-07T05:15:53.596Z,2444
2017-08-07T05:16:53.628Z,2476
2017-08-07T05:17:53.992Z,2508
2017-08-07T05:18:53.686Z,2560
2017-08-07T05:19:53.776Z,2648
2017-08-07T05:20:54.108Z,2720
2017-08-07T05:21:53.795Z,2820
2017-08-07T05:22:54.150Z,2936
2017-08-07T05:23:54.170Z,3056
2017-08-07T05:24:53.863Z,3124
2017-08-07T05:25:54.228Z,3164
2017-08-07T05:26:54.598Z,3252
2017-08-07T05:27:54.322Z,3696
2017-08-07T05:28:54.344Z,4484
2017-08-07T05:29:54.701Z,4504
2017-08-07T05:30:54.710Z,4032
2017-08-07T05:31:54.782Z,4068
2017-08-07T05:32:54.780Z,4344
2017-08-07T05:33:54.831Z,4108
2017-08-07T05:34:54.886Z,4176
2017-08-07T05:35:54.899Z,4252
2017-08-07T05:36:54.959Z,3872
2017-08-07T05:37:55.291Z,3672
2017-08-07T05:38:55.323Z,3664
2017-08-07T05:39:54.776Z,3688
2017-08-07T05:40:55.438Z,3664
2017-08-07T05:41:55.764Z,3524
2017-08-07T05:42:55.813Z,3456
2017-08-07T05:43:55.868Z,3792
2017-08-07T05:44:55.558Z,4328
2017-08-07T05:45:55.590Z,4208
2017-08-07T05:46:55.638Z,3716
2017-08-07T05:47:55.657Z,3884
2017-08-07T05:48:55.998Z,3768
2017-08-07T05:49:56.032Z,3716
2017-08-07T05:50:55.760Z,3824
2017-08-07T05:51:56.125Z,3956
2017-08-07T05:52:56.128Z,3744
2017-08-07T05:53:56.170Z,3632
2017-08-07T05:54:56.201Z,3712
2017-08-07T05:55:55.940Z,3836
2017-08-07T05:56:56.562Z,4356
2017-08-07T05:57:55.982Z,3932
2017-08-07T05:58:56.627Z,3888
2017-08-07T05:59:56.368Z,3836
2017-08-07T06:00:57.328Z,4548
2017-08-07T06:01:57.076Z,5000
2017-08-07T06:02:57.390Z,7648
2017-08-07T06:03:57.447Z,7860
2017-08-07T06:04:57.458Z,4872
2017-08-07T06:05:57.506Z,5384
2017-08-07T06:06:57.533Z,6544
2017-08-07T06:07:57.261Z,5724
2017-08-07T06:08:57.633Z,5436
2017-08-07T06:09:57.946Z,7596
2017-08-07T06:10:57.104Z,12112
2017-08-07T06:11:58.096Z,17728
2017-08-07T06:12:57.791Z,17248
2017-08-07T06:13:57.810Z,22272
2017-08-07T06:14:58.193Z,23456
2017-08-07T06:15:57.935Z,21952
2017-08-07T06:16:58.636Z,18624
2017-08-07T06:17:58.338Z,13632
2017-08-07T06:18:58.391Z,10544
2017-08-07T06:19:58.788Z,10200
2017-08-07T06:20:59.119Z,10124
2017-08-07T06:21:58.533Z,10052
2017-08-07T06:22:59.228Z,9976
2017-08-07T06:23:59.252Z,9860
2017-08-07T06:24:59.276Z,9800
2017-08-07T06:25:59.336Z,9812
2017-08-07T06:26:59.410Z,9816
2017-08-07T06:27:59.441Z,9724
2017-08-07T06:28:59.151Z,9600
2017-08-07T06:29:59.159Z,9480
2017-08-07T06:31:00.139Z,9372
2017-08-07T06:32:00.157Z,9316
2017-08-07T06:32:59.887Z,9312
2017-08-07T06:34:00.238Z,9304
2017-08-07T06:34:59.980Z,9276
2017-08-07T06:35:59.681Z,9272
2017-08-07T06:37:00.652Z,9248
2017-08-07T06:38:00.439Z,9240
2017-08-07T06:39:00.484Z,9140
2017-08-07T06:40:01.211Z,9076
2017-08-07T06:41:01.268Z,9024
2017-08-07T06:42:00.715Z,8976
2017-08-07T06:43:01.412Z,9008
2017-08-07T06:44:01.437Z,8992
2017-08-07T06:45:01.766Z,8920
2017-08-07T06:46:01.504Z,8884
2017-08-07T06:47:01.898Z,8916
2017-08-07T06:48:01.611Z,8928
2017-08-07T06:49:02.043Z,8928
2017-08-07T06:50:02.030Z,8960
2017-08-07T06:51:01.642Z,8920
2017-08-07T06:52:02.106Z,8872
2017-08-07T06:53:02.115Z,8852
2017-08-07T06:54:01.897Z,8832
2017-08-07T06:55:02.204Z,8832
2017-08-07T06:56:02.249Z,8868
2017-08-07T06:57:02.321Z,8860
2017-08-07T06:58:02.350Z,8860
2017-08-07T06:59:02.094Z,8852
2017-08-07T07:00:02.412Z,8864
2017-08-07T07:01:02.454Z,8812
2017-08-07T07:02:02.333Z,8808
2017-08-07T07:03:02.548Z,8788
2017-08-07T07:04:02.584Z,8840
2017-08-07T07:05:02.674Z,8864
2017-08-07T07:06:02.083Z,8836
2017-08-07T07:07:02.735Z,8888
2017-08-07T07:08:02.447Z,8804
2017-08-07T07:09:02.851Z,8788
2017-08-07T07:10:02.292Z,8784
2017-08-07T07:11:03.294Z,8760
2017-08-07T07:12:03.329Z,8728
2017-08-07T07:13:03.350Z,8696
2017-08-07T07:14:03.394Z,8716
2017-08-07T07:15:03.621Z,8708
2017-08-07T07:16:03.170Z,8736
2017-08-07T07:17:03.242Z,8744
2017-08-07T07:18:03.931Z,8752
2017-08-07T07:19:03.672Z,8732
2017-08-07T07:20:03.882Z,8716
2017-08-07T07:21:03.768Z,8708
2017-08-07T07:22:04.095Z,8736
2017-08-07T07:23:04.140Z,8740
2017-08-07T07:24:04.077Z,8748
2017-08-07T07:25:03.951Z,8776
2017-08-07T07:26:04.252Z,8812
2017-08-07T07:27:04.748Z,8936
2017-08-07T07:28:04.667Z,9016
2017-08-07T07:29:04.707Z,9160
2017-08-07T07:30:04.968Z,9364
2017-08-07T07:31:04.787Z,10000
2017-08-07T07:32:04.861Z,11044
2017-08-07T07:33:05.112Z,12708
2017-08-07T07:34:04.987Z,13472
2017-08-07T07:35:04.953Z,13080
2017-08-07T07:36:04.724Z,13268
2017-08-07T07:37:05.357Z,13112
2017-08-07T07:38:05.090Z,13392
2017-08-07T07:39:05.255Z,13288
2017-08-07T07:40:05.672Z,13640
2017-08-07T07:41:05.837Z,16192
2017-08-07T07:42:04.977Z,19296
2017-08-07T07:43:05.049Z,23680
2017-08-07T07:44:05.301Z,29472
2017-08-07T07:45:06.067Z,34272
2017-08-07T07:46:06.523Z,39776
2017-08-07T07:47:05.747Z,51968
2017-08-07T07:48:06.454Z,59968
2017-08-07T07:49:06.785Z,55840
2017-08-07T07:50:06.927Z,53696
2017-08-07T07:51:06.547Z,56096
2017-08-07T07:52:06.916Z,56064
2017-08-07T07:53:06.675Z,57696
2017-08-07T07:54:06.718Z,58240
2017-08-07T07:55:07.342Z,57664
2017-08-07T07:56:06.936Z,61632
2017-08-07T07:57:07.176Z,62112
2017-08-07T07:58:07.241Z,58400
2017-08-07T07:59:07.281Z,53120
2017-08-07T08:00:07.341Z,50912
2017-08-07T08:01:07.129Z,49056
2017-08-07T08:02:07.128Z,46016
2017-08-07T08:03:07.896Z,47616
2017-08-07T08:04:07.268Z,49952
2017-08-07T08:05:07.698Z,51680
2017-08-07T08:06:08.424Z,50400
2017-08-07T08:07:09.087Z,51104
2017-08-07T08:08:09.143Z,52576
2017-08-07T08:09:09.207Z,50720
2017-08-07T08:10:09.028Z,46944
2017-08-07T08:11:08.690Z,46560
2017-08-07T08:12:09.668Z,49632
2017-08-07T08:13:09.697Z,50304
2017-08-07T08:14:09.463Z,46848
2017-08-07T08:15:09.587Z,44800
2017-08-07T08:16:09.656Z,43456
2017-08-07T08:17:10.261Z,45024
2017-08-07T08:18:10.316Z,44544
2017-08-07T08:19:10.392Z,40640
2017-08-07T08:20:10.140Z,36576
2017-08-07T08:21:09.840Z,36928
2017-08-07T08:22:09.975Z,38400
2017-08-07T08:23:10.570Z,38816
2017-08-07T08:24:10.573Z,37760
2017-08-07T08:25:10.960Z,36864
2017-08-07T08:26:11.002Z,39072
2017-08-07T08:27:10.801Z,40384
2017-08-07T08:28:10.476Z,39744
2017-08-07T08:29:11.555Z,40384
2017-08-07T08:30:10.986Z,40992
2017-08-07T08:31:12.350Z,40448
2017-08-07T08:32:12.269Z,41472
2017-08-07T08:33:11.423Z,42848
2017-08-07T08:34:12.388Z,42336
2017-08-07T08:35:12.310Z,44416
2017-08-07T08:36:12.179Z,47360
2017-08-07T08:37:12.534Z,45792
2017-08-07T08:38:12.498Z,40608
2017-08-07T08:39:12.291Z,37632
2017-08-07T08:40:12.719Z,37120
2017-08-07T08:41:12.781Z,37184
2017-08-07T08:42:12.492Z,35744
2017-08-07T08:43:12.885Z,31936
2017-08-07T08:44:12.913Z,29664
2017-08-07T08:45:12.713Z,26496
2017-08-07T08:46:12.998Z,22144
2017-08-07T08:47:12.839Z,18560
2017-08-07T08:48:13.120Z,15616
2017-08-07T08:49:13.143Z,14912
2017-08-07T08:50:12.889Z,14048
2017-08-07T08:51:12.924Z,13920
2017-08-07T08:52:13.624Z,13420
2017-08-07T08:53:12.992Z,12920
2017-08-07T08:54:13.366Z,12780
2017-08-07T08:55:13.422Z,12772
2017-08-07T08:56:13.768Z,12544
2017-08-07T08:57:13.809Z,12404
2017-08-07T08:58:13.468Z,12536
2017-08-07T08:59:14.182Z,12608
2017-08-07T09:00:13.303Z,12624
2017-08-07T09:01:14.595Z,12456
2017-08-07T09:02:14.501Z,12400
2017-08-07T09:03:13.761Z,12404
2017-08-07T09:04:14.431Z,12580
2017-08-07T09:05:15.038Z,12724
2017-08-07T09:06:14.591Z,10408
2017-08-07T09:07:14.993Z,12900
2017-08-07T09:08:15.063Z,12908
2017-08-07T09:09:14.763Z,13664
2017-08-07T09:10:15.440Z,13632
2017-08-07T09:11:14.565Z,13056
2017-08-07T09:12:15.243Z,12800
2017-08-07T09:13:15.902Z,12816
2017-08-07T09:14:15.635Z,12816
2017-08-07T09:15:15.556Z,12812
2017-08-07T09:16:16.245Z,12720
2017-08-07T09:17:15.671Z,12748
2017-08-07T09:18:16.619Z,12884
2017-08-07T09:19:16.700Z,13012
2017-08-07T09:20:17.287Z,13248
2017-08-07T09:21:16.875Z,13344
2017-08-07T09:22:16.857Z,13440
2017-08-07T09:23:16.598Z,13408
2017-08-07T09:24:16.961Z,12588
2017-08-07T09:25:17.290Z,13632
2017-08-07T09:26:16.782Z,13728
2017-08-07T09:27:17.146Z,13856
2017-08-07T09:28:16.896Z,14048
2017-08-07T09:29:16.985Z,14368
2017-08-07T09:30:17.388Z,14624
2017-08-07T09:31:17.471Z,14720
2017-08-07T09:32:17.854Z,14688
2017-08-07T09:33:17.908Z,15104
2017-08-07T09:34:17.661Z,15392
2017-08-07T09:35:17.818Z,15328
2017-08-07T09:36:18.485Z,5700
2017-08-07T09:37:18.569Z,6300
2017-08-07T09:38:18.948Z,6888
2017-08-07T09:39:18.666Z,6672
2017-08-07T09:40:19.059Z,6784
2017-08-07T09:41:19.082Z,10688
2017-08-07T09:42:19.421Z,17536
2017-08-07T09:43:19.199Z,17664
2017-08-07T09:44:19.280Z,16704
2017-08-07T09:45:19.282Z,16384
2017-08-07T09:46:19.425Z,16256
2017-08-07T09:47:19.497Z,16576
2017-08-07T09:48:19.450Z,17152
2017-08-07T09:49:19.552Z,17344
2017-08-07T09:50:19.341Z,16800
2017-08-07T09:51:19.603Z,16384
2017-08-07T09:52:19.354Z,16160
2017-08-07T09:53:19.653Z,16192
2017-08-07T09:54:19.800Z,16128
2017-08-07T09:55:19.478Z,16032
2017-08-07T09:56:20.178Z,16096
2017-08-07T09:57:21.119Z,16640
2017-08-07T09:58:20.563Z,17376
2017-08-07T09:59:20.604Z,16640
2017-08-07T10:00:20.244Z,17024
2017-08-07T10:01:20.102Z,17632
2017-08-07T10:02:21.414Z,17792
2017-08-07T10:03:21.750Z,18496
2017-08-07T10:04:20.919Z,6756
2017-08-07T10:05:21.000Z,5876
2017-08-07T10:06:22.099Z,5776
2017-08-07T10:07:21.804Z,5780
2017-08-07T10:08:22.143Z,6216
2017-08-07T10:09:22.530Z,6108
2017-08-07T10:10:22.058Z,6108
2017-08-07T10:11:22.028Z,6296
2017-08-07T10:12:22.313Z,8172
2017-08-07T10:13:22.164Z,31072
2017-08-07T10:14:22.251Z,22400
2017-08-07T10:15:22.149Z,30112
2017-08-07T10:16:22.191Z,30240
2017-08-07T10:17:21.982Z,29632
2017-08-07T10:18:22.710Z,30752
2017-08-07T10:19:22.266Z,32128
2017-08-07T10:20:22.472Z,30784
2017-08-07T10:21:22.160Z,8012
2017-08-07T10:22:22.773Z,8076
2017-08-07T10:23:22.839Z,7760
2017-08-07T10:24:22.276Z,7728
2017-08-07T10:25:22.310Z,10332
2017-08-07T10:26:22.659Z,17664
2017-08-07T10:27:22.728Z,12384
2017-08-07T10:28:22.779Z,27488
2017-08-07T10:29:22.804Z,54208
2017-08-07T10:30:22.828Z,53792
2017-08-07T10:31:22.563Z,54464
2017-08-07T10:32:22.916Z,54528
2017-08-07T10:33:22.664Z,54816
2017-08-07T10:34:23.026Z,55936
2017-08-07T10:35:23.040Z,56064
2017-08-07T10:36:22.816Z,5572
2017-08-07T10:37:22.801Z,5428
2017-08-07T10:38:22.924Z,50880
2017-08-07T10:39:23.339Z,6872
2017-08-07T10:40:23.081Z,5880
2017-08-07T10:41:23.416Z,6592
2017-08-07T10:42:23.447Z,10056
2017-08-07T10:43:23.191Z,47328
2017-08-07T10:44:23.236Z,7284
2017-08-07T10:45:23.282Z,6464
2017-08-07T10:46:23.012Z,6672
2017-08-07T10:47:23.692Z,6372
2017-08-07T10:48:23.452Z,6136
2017-08-07T10:49:24.104Z,6800
2017-08-07T10:50:24.152Z,8184
2017-08-07T10:51:23.547Z,8128
2017-08-07T10:52:23.912Z,63680
2017-08-07T10:53:23.952Z,7112
2017-08-07T10:54:24.008Z,6748
2017-08-07T10:55:24.444Z,7060
2017-08-07T10:56:23.840Z,7276
2017-08-07T10:57:24.503Z,6856
2017-08-07T10:58:24.597Z,7024
2017-08-07T10:59:24.573Z,8536
2017-08-07T11:00:25.213Z,8636
2017-08-07T11:01:25.124Z,8092
2017-08-07T11:02:25.451Z,7620
2017-08-07T11:03:26.133Z,9952
2017-08-07T11:04:25.528Z,9792
2017-08-07T11:05:26.203Z,7856
2017-08-07T11:06:25.616Z,7660
2017-08-07T11:07:26.316Z,7320
2017-08-07T11:08:26.706Z,7644
2017-08-07T11:09:26.753Z,7780
2017-08-07T11:10:26.784Z,8308
2017-08-07T11:11:26.793Z,7980
2017-08-07T11:12:26.936Z,7912
2017-08-07T11:13:26.911Z,7808
2017-08-07T11:14:27.245Z,7864
2017-08-07T11:15:26.981Z,7872
2017-08-07T11:16:27.068Z,7664
2017-08-07T11:17:27.067Z,8952
2017-08-07T11:18:27.137Z,9060
2017-08-07T11:19:28.182Z,8868
2017-08-07T11:20:28.160Z,8220
2017-08-07T11:21:28.192Z,7200
2017-08-07T11:22:28.529Z,7292
2017-08-07T11:23:27.995Z,7708
2017-08-07T11:24:28.645Z,8760
2017-08-07T11:25:29.258Z,6980
2017-08-07T11:26:28.748Z,7764
2017-08-07T11:27:29.415Z,9296
2017-08-07T11:28:29.148Z,8140
2017-08-07T11:29:29.183Z,7744
2017-08-07T11:30:29.530Z,7832
2017-08-07T11:31:29.577Z,7368
2017-08-07T11:32:29.926Z,7636
2017-08-07T11:33:29.674Z,9280
2017-08-07T11:34:29.685Z,9984
2017-08-07T11:35:29.864Z,9580
2017-08-07T11:36:29.785Z,8844
2017-08-07T11:37:29.568Z,7784
2017-08-07T11:38:29.873Z,8544
2017-08-07T11:39:29.589Z,7512
2017-08-07T11:40:29.290Z,7368
2017-08-07T11:41:29.671Z,7164
2017-08-07T11:42:30.025Z,6700
2017-08-07T11:43:30.068Z,6648
2017-08-07T11:44:30.094Z,6956
2017-08-07T11:45:29.838Z,7052
2017-08-07T11:46:29.877Z,6752
2017-08-07T11:47:30.229Z,6480
2017-08-07T11:48:30.255Z,6272
2017-08-07T11:49:30.298Z,6228
2017-08-07T11:50:30.033Z,6084
2017-08-07T11:51:30.467Z,6152
2017-08-07T11:52:30.425Z,6320
2017-08-07T11:53:30.140Z,6444
2017-08-07T11:54:30.480Z,6768
2017-08-07T11:55:31.309Z,7368
2017-08-07T11:56:30.558Z,7272
2017-08-07T11:57:30.913Z,6628
2017-08-07T11:58:30.613Z,6660
2017-08-07T11:59:31.261Z,6336
2017-08-07T12:00:30.998Z,6296
2017-08-07T12:01:32.052Z,6272
2017-08-07T12:02:31.736Z,5928
2017-08-07T12:03:31.801Z,4796
2017-08-07T12:04:31.857Z,4352
2017-08-07T12:05:31.875Z,4068
2017-08-07T12:06:31.917Z,3804
2017-08-07T12:07:32.041Z,3692
2017-08-07T12:08:32.349Z,3712
2017-08-07T12:09:32.084Z,3772
2017-08-07T12:10:32.426Z,3896
2017-08-07T12:11:32.131Z,4184
2017-08-07T12:12:32.182Z,4332
2017-08-07T12:13:31.942Z,4364
2017-08-07T12:14:32.640Z,4300
2017-08-07T12:15:33.273Z,4240
2017-08-07T12:16:33.061Z,4420
2017-08-07T12:17:33.076Z,4552
2017-08-07T12:18:33.399Z,4596
2017-08-07T12:19:33.461Z,4820
2017-08-07T12:20:33.501Z,4516
2017-08-07T12:21:33.665Z,4016
2017-08-07T12:22:33.620Z,3720
2017-08-07T12:23:33.643Z,3696
2017-08-07T12:24:33.647Z,3728
2017-08-07T12:25:34.293Z,3640
2017-08-07T12:26:34.030Z,3604
2017-08-07T12:27:34.387Z,3624
2017-08-07T12:28:34.416Z,3672
2017-08-07T12:29:34.185Z,3384
2017-08-07T12:30:34.187Z,3260
2017-08-07T12:31:34.845Z,3328
2017-08-07T12:32:34.905Z,3564
2017-08-07T12:33:34.638Z,4060
2017-08-07T12:34:34.944Z,4384
2017-08-07T12:35:34.968Z,4468
2017-08-07T12:36:35.017Z,5024
2017-08-07T12:37:34.770Z,5004
2017-08-07T12:38:35.089Z,4976
2017-08-07T12:39:35.134Z,4936
2017-08-07T12:40:35.184Z,4772
2017-08-07T12:41:35.251Z,4216
2017-08-07T12:42:35.239Z,4104
2017-08-07T12:43:34.986Z,4240
2017-08-07T12:44:35.351Z,4472
2017-08-07T12:45:35.082Z,4100
2017-08-07T12:46:35.091Z,3644
2017-08-07T12:47:35.448Z,3256
2017-08-07T12:48:35.511Z,2852
2017-08-07T12:49:35.536Z,2704
2017-08-07T12:50:35.280Z,2880
2017-08-07T12:51:35.336Z,3328
2017-08-07T12:52:35.681Z,3608
2017-08-07T12:53:36.083Z,3736
2017-08-07T12:54:35.782Z,3732
2017-08-07T12:55:36.430Z,3572
2017-08-07T12:56:36.496Z,3504
2017-08-07T12:57:36.532Z,3384
2017-08-07T12:58:36.296Z,3212
2017-08-07T12:59:36.657Z,3044
2017-08-07T13:00:37.032Z,3028
2017-08-07T13:01:36.835Z,2980
2017-08-07T13:02:37.204Z,2860
2017-08-07T13:03:36.904Z,2796
2017-08-07T13:04:37.596Z,2712
2017-08-07T13:05:37.625Z,2700
2017-08-07T13:06:37.350Z,2572
2017-08-07T13:07:37.700Z,2548
2017-08-07T13:08:37.438Z,2708
2017-08-07T13:09:37.456Z,2696
2017-08-07T13:10:37.196Z,2704
2017-08-07T13:11:37.549Z,2732
2017-08-07T13:12:37.893Z,2728
2017-08-07T13:13:37.628Z,2712
2017-08-07T13:14:37.974Z,2732
2017-08-07T13:15:38.106Z,2760
2017-08-07T13:16:37.424Z,2816
2017-08-07T13:17:38.403Z,2924
2017-08-07T13:18:38.472Z,3072
2017-08-07T13:19:38.201Z,3224
2017-08-07T13:20:37.737Z,3396
2017-08-07T13:21:37.954Z,3624
2017-08-07T13:22:38.811Z,3644
2017-08-07T13:23:38.821Z,3828
2017-08-07T13:24:38.854Z,4588
2017-08-07T13:25:38.311Z,4692
2017-08-07T13:26:38.977Z,4552
2017-08-07T13:27:38.705Z,4240
2017-08-07T13:28:39.081Z,4276
2017-08-07T13:29:38.778Z,3696
2017-08-07T13:30:39.437Z,3276
2017-08-07T13:31:39.474Z,3120
2017-08-07T13:32:40.132Z,3152
2017-08-07T13:33:40.167Z,3148
2017-08-07T13:34:39.970Z,3116
2017-08-07T13:35:40.277Z,3032